sensor_id;sensor_type;location;lat;lon;timestamp;temperature;humidity
35491;DHT22;21605;52.068;20.806;2022-12-05T00:01:31;1.70;99.90
35491;DHT22;21605;52.068;20.806;2022-12-05T00:04:00;1.60;99.90
35491;DHT22;21605;52.068;20.806;2022-12-05T00:06:27;1.70;99.90
35491;DHT22;21605;52.068;20.806;2022-12-05T00:08:53;1.80;99.90
35491;DHT22;21605;52.068;20.806;2022-12-05T00:11:27;1.70;99.90
35491;DHT22;21605;52.068;20.806;2022-12-05T00:13:54;1.70;99.90
35491;DHT22;21605;52.068;20.806;2022-12-05T00:16:28;1.60;99.90
35491;DHT22;21605;52.068;20.806;2022-12-05T00:18:54;1.60;99.90
35491;DHT22;21605;52.068;20.806;2022-12-05T00:21:22;1.70;99.90
35491;DHT22;21605;52.068;20.806;2022-12-05T00:23:48;1.60;99.90
35491;DHT22;21605;52.068;20.806;2022-12-05T00:26:14;1.60;99.90
35491;DHT22;21605;52.068;20.806;2022-12-05T00:28:40;1.70;99.90
35491;DHT22;21605;52.068;20.806;2022-12-05T00:31:12;1.70;99.90
35491;DHT22;21605;52.068;20.806;2022-12-05T00:33:38;1.70;99.90
35491;DHT22;21605;52.068;20.806;2022-12-05T00:36:22;1.70;99.90
35491;DHT22;21605;52.068;20.806;2022-12-05T00:38:48;1.70;99.90
35491;DHT22;21605;52.068;20.806;2022-12-05T00:41:17;1.70;99.90
35491;DHT22;21605;52.068;20.806;2022-12-05T00:43:43;1.70;99.90
35491;DHT22;21605;52.068;20.806;2022-12-05T00:46:12;1.70;99.90
35491;DHT22;21605;52.068;20.806;2022-12-05T00:48:39;1.70;99.90
35491;DHT22;21605;52.068;20.806;2022-12-05T00:51:09;1.50;99.90
35491;DHT22;21605;52.068;20.806;2022-12-05T00:53:35;1.60;99.90
35491;DHT22;21605;52.068;20.806;2022-12-05T00:56:02;1.60;99.90
35491;DHT22;21605;52.068;20.806;2022-12-05T00:58:29;1.60;99.90
35491;DHT22;21605;52.068;20.806;2022-12-05T01:00:54;1.60;99.90
35491;DHT22;21605;52.068;20.806;2022-12-05T01:03:20;1.50;99.90
35491;DHT22;21605;52.068;20.806;2022-12-05T01:05:46;1.50;99.90
35491;DHT22;21605;52.068;20.806;2022-12-05T01:08:11;1.60;99.90
35491;DHT22;21605;52.068;20.806;2022-12-05T01:10:37;1.50;99.90
35491;DHT22;21605;52.068;20.806;2022-12-05T01:13:02;1.50;99.90
35491;DHT22;21605;52.068;20.806;2022-12-05T01:15:28;1.60;99.90
35491;DHT22;21605;52.068;20.806;2022-12-05T01:17:53;1.60;99.90
35491;DHT22;21605;52.068;20.806;2022-12-05T01:20:19;1.60;99.90
35491;DHT22;21605;52.068;20.806;2022-12-05T01:23:00;1.50;99.90
35491;DHT22;21605;52.068;20.806;2022-12-05T01:25:25;1.60;99.90
35491;DHT22;21605;52.068;20.806;2022-12-05T01:27:51;1.60;99.90
35491;DHT22;21605;52.068;20.806;2022-12-05T01:30:16;1.60;99.90
35491;DHT22;21605;52.068;20.806;2022-12-05T01:32:42;1.60;99.90
35491;DHT22;21605;52.068;20.806;2022-12-05T01:35:08;1.60;99.90
35491;DHT22;21605;52.068;20.806;2022-12-05T01:37:33;1.50;99.90
35491;DHT22;21605;52.068;20.806;2022-12-05T01:39:59;1.60;99.90
35491;DHT22;21605;52.068;20.806;2022-12-05T01:42:34;1.50;99.90
35491;DHT22;21605;52.068;20.806;2022-12-05T01:45:46;1.60;99.90
35491;DHT22;21605;52.068;20.806;2022-12-05T01:47:56;1.50;99.90
35491;DHT22;21605;52.068;20.806;2022-12-05T01:50:33;1.50;99.90
35491;DHT22;21605;52.068;20.806;2022-12-05T01:53:00;1.50;99.90
35491;DHT22;21605;52.068;20.806;2022-12-05T01:55:35;1.70;99.90
35491;DHT22;21605;52.068;20.806;2022-12-05T01:58:02;1.60;99.90
35491;DHT22;21605;52.068;20.806;2022-12-05T02:00:34;1.60;99.90
35491;DHT22;21605;52.068;20.806;2022-12-05T02:03:09;1.60;99.90
35491;DHT22;21605;52.068;20.806;2022-12-05T02:05:36;1.60;99.90
35491;DHT22;21605;52.068;20.806;2022-12-05T02:08:05;1.50;99.90
35491;DHT22;21605;52.068;20.806;2022-12-05T02:10:47;1.50;99.90
35491;DHT22;21605;52.068;20.806;2022-12-05T02:14:19;1.50;99.90
35491;DHT22;21605;52.068;20.806;2022-12-05T02:16:51;1.50;99.90
35491;DHT22;21605;52.068;20.806;2022-12-05T02:22:36;1.30;99.90
35491;DHT22;21605;52.068;20.806;2022-12-05T02:34:14;1.40;99.90
35491;DHT22;21605;52.068;20.806;2022-12-05T02:39:44;1.30;99.90
35491;DHT22;21605;52.068;20.806;2022-12-05T02:42:18;1.20;99.90
35491;DHT22;21605;52.068;20.806;2022-12-05T02:45:09;1.30;99.90
35491;DHT22;21605;52.068;20.806;2022-12-05T02:47:44;1.20;99.90
35491;DHT22;21605;52.068;20.806;2022-12-05T02:50:13;1.20;99.90
35491;DHT22;21605;52.068;20.806;2022-12-05T02:52:42;1.20;99.90
35491;DHT22;21605;52.068;20.806;2022-12-05T02:55:10;1.30;99.90
35491;DHT22;21605;52.068;20.806;2022-12-05T02:57:37;1.20;99.90
35491;DHT22;21605;52.068;20.806;2022-12-05T03:00:04;1.20;99.90
35491;DHT22;21605;52.068;20.806;2022-12-05T03:02:32;1.20;99.90
35491;DHT22;21605;52.068;20.806;2022-12-05T03:05:21;1.30;99.90
35491;DHT22;21605;52.068;20.806;2022-12-05T03:08:04;1.30;99.90
35491;DHT22;21605;52.068;20.806;2022-12-05T03:10:33;1.30;99.90
35491;DHT22;21605;52.068;20.806;2022-12-05T03:13:07;1.40;99.90
35491;DHT22;21605;52.068;20.806;2022-12-05T03:15:39;1.40;99.90
35491;DHT22;21605;52.068;20.806;2022-12-05T03:18:37;1.40;99.90
35491;DHT22;21605;52.068;20.806;2022-12-05T03:21:06;1.40;99.90
35491;DHT22;21605;52.068;20.806;2022-12-05T03:23:44;1.40;99.90
35491;DHT22;21605;52.068;20.806;2022-12-05T03:29:06;1.50;99.90
35491;DHT22;21605;52.068;20.806;2022-12-05T03:31:40;1.40;99.90
35491;DHT22;21605;52.068;20.806;2022-12-05T03:34:09;1.40;99.90
35491;DHT22;21605;52.068;20.806;2022-12-05T03:36:43;1.30;99.90
35491;DHT22;21605;52.068;20.806;2022-12-05T03:39:12;1.30;99.90
35491;DHT22;21605;52.068;20.806;2022-12-05T03:41:58;1.30;99.90
35491;DHT22;21605;52.068;20.806;2022-12-05T03:49:43;1.40;99.90
35491;DHT22;21605;52.068;20.806;2022-12-05T03:52:14;1.30;99.90
35491;DHT22;21605;52.068;20.806;2022-12-05T03:54:46;1.30;99.90
35491;DHT22;21605;52.068;20.806;2022-12-05T03:59:49;1.40;99.90
35491;DHT22;21605;52.068;20.806;2022-12-05T04:02:23;1.40;99.90
35491;DHT22;21605;52.068;20.806;2022-12-05T04:05:05;1.30;99.90
35491;DHT22;21605;52.068;20.806;2022-12-05T04:07:38;1.30;99.90
35491;DHT22;21605;52.068;20.806;2022-12-05T04:10:08;1.30;99.90
35491;DHT22;21605;52.068;20.806;2022-12-05T04:12:40;1.30;99.90
35491;DHT22;21605;52.068;20.806;2022-12-05T04:15:12;1.30;99.90
35491;DHT22;21605;52.068;20.806;2022-12-05T04:17:59;1.30;99.90
35491;DHT22;21605;52.068;20.806;2022-12-05T04:20:35;1.30;99.90
35491;DHT22;21605;52.068;20.806;2022-12-05T04:23:20;1.30;99.90
35491;DHT22;21605;52.068;20.806;2022-12-05T04:31:30;1.30;99.90
35491;DHT22;21605;52.068;20.806;2022-12-05T04:34:04;1.40;99.90
35491;DHT22;21605;52.068;20.806;2022-12-05T04:36:53;1.40;99.90
35491;DHT22;21605;52.068;20.806;2022-12-05T04:39:44;1.40;99.90
35491;DHT22;21605;52.068;20.806;2022-12-05T04:42:25;1.40;99.90
35491;DHT22;21605;52.068;20.806;2022-12-05T04:44:58;1.40;99.90
35491;DHT22;21605;52.068;20.806;2022-12-05T04:47:30;1.30;99.90
35491;DHT22;21605;52.068;20.806;2022-12-05T04:50:07;0.80;99.90
35491;DHT22;21605;52.068;20.806;2022-12-05T04:52:36;1.30;99.90
35491;DHT22;21605;52.068;20.806;2022-12-05T04:55:13;1.30;99.90
35491;DHT22;21605;52.068;20.806;2022-12-05T04:57:44;1.30;99.90
35491;DHT22;21605;52.068;20.806;2022-12-05T05:00:14;1.30;99.90
35491;DHT22;21605;52.068;20.806;2022-12-05T05:02:55;1.30;99.90
35491;DHT22;21605;52.068;20.806;2022-12-05T05:05:23;1.30;99.90
35491;DHT22;21605;52.068;20.806;2022-12-05T05:07:52;1.30;99.90
35491;DHT22;21605;52.068;20.806;2022-12-05T05:10:32;1.30;99.90
35491;DHT22;21605;52.068;20.806;2022-12-05T05:13:06;1.30;99.90
35491;DHT22;21605;52.068;20.806;2022-12-05T05:15:41;1.30;99.90
35491;DHT22;21605;52.068;20.806;2022-12-05T05:18:08;1.30;99.90
35491;DHT22;21605;52.068;20.806;2022-12-05T05:20:43;1.30;99.90
35491;DHT22;21605;52.068;20.806;2022-12-05T05:23:09;1.40;99.90
35491;DHT22;21605;52.068;20.806;2022-12-05T05:25:43;1.40;99.90
35491;DHT22;21605;52.068;20.806;2022-12-05T05:28:09;1.40;99.90
35491;DHT22;21605;52.068;20.806;2022-12-05T05:30:44;1.40;99.90
35491;DHT22;21605;52.068;20.806;2022-12-05T05:33:09;1.40;99.90
35491;DHT22;21605;52.068;20.806;2022-12-05T05:35:44;1.30;99.90
35491;DHT22;21605;52.068;20.806;2022-12-05T05:38:09;1.40;99.90
35491;DHT22;21605;52.068;20.806;2022-12-05T05:40:44;1.40;99.90
35491;DHT22;21605;52.068;20.806;2022-12-05T05:43:10;1.40;99.90
35491;DHT22;21605;52.068;20.806;2022-12-05T05:45:45;1.50;99.90
35491;DHT22;21605;52.068;20.806;2022-12-05T05:48:10;1.40;99.90
35491;DHT22;21605;52.068;20.806;2022-12-05T05:50:36;1.40;99.90
35491;DHT22;21605;52.068;20.806;2022-12-05T05:53:02;1.40;99.90
35491;DHT22;21605;52.068;20.806;2022-12-05T05:55:27;1.50;99.90
35491;DHT22;21605;52.068;20.806;2022-12-05T05:57:53;1.40;99.90
35491;DHT22;21605;52.068;20.806;2022-12-05T06:00:18;1.50;99.90
35491;DHT22;21605;52.068;20.806;2022-12-05T06:02:44;1.50;99.90
35491;DHT22;21605;52.068;20.806;2022-12-05T06:05:10;1.50;99.90
35491;DHT22;21605;52.068;20.806;2022-12-05T06:07:35;1.40;99.90
35491;DHT22;21605;52.068;20.806;2022-12-05T06:10:01;1.40;99.90
35491;DHT22;21605;52.068;20.806;2022-12-05T06:12:26;1.40;99.90
35491;DHT22;21605;52.068;20.806;2022-12-05T06:14:52;1.50;99.90
35491;DHT22;21605;52.068;20.806;2022-12-05T06:17:18;1.40;99.90
35491;DHT22;21605;52.068;20.806;2022-12-05T06:19:45;1.40;99.90
35491;DHT22;21605;52.068;20.806;2022-12-05T06:22:11;1.50;99.90
35491;DHT22;21605;52.068;20.806;2022-12-05T06:24:45;1.40;99.90
35491;DHT22;21605;52.068;20.806;2022-12-05T06:27:11;1.50;99.90
35491;DHT22;21605;52.068;20.806;2022-12-05T06:29:49;1.50;99.90
35491;DHT22;21605;52.068;20.806;2022-12-05T06:32:15;1.50;99.90
35491;DHT22;21605;52.068;20.806;2022-12-05T06:34:43;1.50;99.90
35491;DHT22;21605;52.068;20.806;2022-12-05T06:37:09;1.50;99.90
35491;DHT22;21605;52.068;20.806;2022-12-05T06:39:40;1.50;99.90
35491;DHT22;21605;52.068;20.806;2022-12-05T06:42:05;1.50;99.90
35491;DHT22;21605;52.068;20.806;2022-12-05T06:44:31;1.50;99.90
35491;DHT22;21605;52.068;20.806;2022-12-05T06:46:56;1.50;99.90
35491;DHT22;21605;52.068;20.806;2022-12-05T06:49:23;1.40;99.90
35491;DHT22;21605;52.068;20.806;2022-12-05T06:51:52;1.50;99.90
35491;DHT22;21605;52.068;20.806;2022-12-05T06:54:18;1.40;99.90
35491;DHT22;21605;52.068;20.806;2022-12-05T06:56:46;1.50;99.90
35491;DHT22;21605;52.068;20.806;2022-12-05T06:59:12;1.50;99.90
35491;DHT22;21605;52.068;20.806;2022-12-05T07:01:47;1.50;99.90
35491;DHT22;21605;52.068;20.806;2022-12-05T07:04:18;1.60;99.90
35491;DHT22;21605;52.068;20.806;2022-12-05T07:06:51;1.50;99.90
35491;DHT22;21605;52.068;20.806;2022-12-05T07:09:22;1.50;99.90
35491;DHT22;21605;52.068;20.806;2022-12-05T07:12:08;1.50;99.90
35491;DHT22;21605;52.068;20.806;2022-12-05T07:14:34;1.60;99.90
35491;DHT22;21605;52.068;20.806;2022-12-05T07:17:00;1.60;99.90
35491;DHT22;21605;52.068;20.806;2022-12-05T07:19:25;1.60;99.90
35491;DHT22;21605;52.068;20.806;2022-12-05T07:21:51;1.50;99.90
35491;DHT22;21605;52.068;20.806;2022-12-05T07:24:16;1.50;99.90
35491;DHT22;21605;52.068;20.806;2022-12-05T07:26:47;1.50;99.90
35491;DHT22;21605;52.068;20.806;2022-12-05T07:29:13;1.50;99.90
35491;DHT22;21605;52.068;20.806;2022-12-05T07:31:48;1.60;99.90
35491;DHT22;21605;52.068;20.806;2022-12-05T07:34:13;1.60;99.90
35491;DHT22;21605;52.068;20.806;2022-12-05T07:36:48;1.70;99.90
35491;DHT22;21605;52.068;20.806;2022-12-05T07:39:14;1.70;99.90
35491;DHT22;21605;52.068;20.806;2022-12-05T07:41:46;1.60;99.90
35491;DHT22;21605;52.068;20.806;2022-12-05T07:44:11;1.60;99.90
35491;DHT22;21605;52.068;20.806;2022-12-05T07:46:38;1.60;99.90
35491;DHT22;21605;52.068;20.806;2022-12-05T07:49:03;1.60;99.90
35491;DHT22;21605;52.068;20.806;2022-12-05T07:51:29;1.60;99.90
35491;DHT22;21605;52.068;20.806;2022-12-05T07:53:57;1.60;99.90
35491;DHT22;21605;52.068;20.806;2022-12-05T07:56:23;1.60;99.90
35491;DHT22;21605;52.068;20.806;2022-12-05T07:58:49;1.60;99.90
35491;DHT22;21605;52.068;20.806;2022-12-05T08:01:20;1.60;99.90
35491;DHT22;21605;52.068;20.806;2022-12-05T08:03:51;1.60;99.90
35491;DHT22;21605;52.068;20.806;2022-12-05T08:06:20;1.70;99.90
35491;DHT22;21605;52.068;20.806;2022-12-05T08:08:52;1.70;99.90
35491;DHT22;21605;52.068;20.806;2022-12-05T08:11:24;1.60;99.90
35491;DHT22;21605;52.068;20.806;2022-12-05T08:13:52;1.60;99.90
35491;DHT22;21605;52.068;20.806;2022-12-05T08:16:21;1.70;99.90
35491;DHT22;21605;52.068;20.806;2022-12-05T08:18:47;1.70;99.90
35491;DHT22;21605;52.068;20.806;2022-12-05T08:21:16;1.70;99.90
35491;DHT22;21605;52.068;20.806;2022-12-05T08:23:48;1.60;99.90
35491;DHT22;21605;52.068;20.806;2022-12-05T08:26:19;1.70;99.90
35491;DHT22;21605;52.068;20.806;2022-12-05T08:28:46;1.70;99.90
35491;DHT22;21605;52.068;20.806;2022-12-05T08:31:17;1.70;99.90
35491;DHT22;21605;52.068;20.806;2022-12-05T08:33:50;1.70;99.90
35491;DHT22;21605;52.068;20.806;2022-12-05T08:36:16;1.80;99.90
35491;DHT22;21605;52.068;20.806;2022-12-05T08:38:43;1.80;99.90
35491;DHT22;21605;52.068;20.806;2022-12-05T08:41:12;1.80;99.90
35491;DHT22;21605;52.068;20.806;2022-12-05T08:43:38;1.70;99.90
35491;DHT22;21605;52.068;20.806;2022-12-05T08:46:03;1.80;99.90
35491;DHT22;21605;52.068;20.806;2022-12-05T08:48:31;1.80;99.90
35491;DHT22;21605;52.068;20.806;2022-12-05T08:50:57;1.80;99.90
35491;DHT22;21605;52.068;20.806;2022-12-05T08:53:23;1.80;99.90
35491;DHT22;21605;52.068;20.806;2022-12-05T08:55:48;1.80;99.90
35491;DHT22;21605;52.068;20.806;2022-12-05T08:58:14;1.80;99.90
35491;DHT22;21605;52.068;20.806;2022-12-05T09:00:49;1.80;99.90
35491;DHT22;21605;52.068;20.806;2022-12-05T09:03:15;1.80;99.90
35491;DHT22;21605;52.068;20.806;2022-12-05T09:05:49;1.90;99.90
35491;DHT22;21605;52.068;20.806;2022-12-05T09:08:15;1.90;99.90
35491;DHT22;21605;52.068;20.806;2022-12-05T09:10:50;1.80;99.90
35491;DHT22;21605;52.068;20.806;2022-12-05T09:13:15;1.90;99.90
35491;DHT22;21605;52.068;20.806;2022-12-05T09:15:50;1.90;99.90
35491;DHT22;21605;52.068;20.806;2022-12-05T09:18:16;1.90;99.90
35491;DHT22;21605;52.068;20.806;2022-12-05T09:21:10;1.80;99.90
35491;DHT22;21605;52.068;20.806;2022-12-05T09:23:36;1.90;99.90
35491;DHT22;21605;52.068;20.806;2022-12-05T09:26:04;1.90;99.90
35491;DHT22;21605;52.068;20.806;2022-12-05T09:28:31;2.00;99.90
35491;DHT22;21605;52.068;20.806;2022-12-05T09:31:02;1.90;99.90
35491;DHT22;21605;52.068;20.806;2022-12-05T09:33:30;2.00;99.90
35491;DHT22;21605;52.068;20.806;2022-12-05T09:35:57;2.00;99.90
35491;DHT22;21605;52.068;20.806;2022-12-05T09:38:22;2.00;99.90
35491;DHT22;21605;52.068;20.806;2022-12-05T09:44:02;1.90;99.90
35491;DHT22;21605;52.068;20.806;2022-12-05T09:46:43;2.00;99.90
35491;DHT22;21605;52.068;20.806;2022-12-05T09:49:18;1.90;99.90
35491;DHT22;21605;52.068;20.806;2022-12-05T09:51:53;2.00;99.90
35491;DHT22;21605;52.068;20.806;2022-12-05T09:54:20;2.00;99.90
35491;DHT22;21605;52.068;20.806;2022-12-05T09:56:52;2.00;99.90
35491;DHT22;21605;52.068;20.806;2022-12-05T10:18:00;2.50;99.90
35491;DHT22;21605;52.068;20.806;2022-12-05T10:24:00;2.50;99.90
35491;DHT22;21605;52.068;20.806;2022-12-05T10:26:32;2.40;99.90
35491;DHT22;21605;52.068;20.806;2022-12-05T10:29:22;2.40;99.90
35491;DHT22;21605;52.068;20.806;2022-12-05T10:32:00;2.40;99.90
35491;DHT22;21605;52.068;20.806;2022-12-05T10:34:31;2.30;99.90
35491;DHT22;21605;52.068;20.806;2022-12-05T10:37:07;2.30;99.90
35491;DHT22;21605;52.068;20.806;2022-12-05T10:39:34;2.60;99.90
35491;DHT22;21605;52.068;20.806;2022-12-05T10:42:00;2.30;99.90
35491;DHT22;21605;52.068;20.806;2022-12-05T10:44:26;2.30;99.90
35491;DHT22;21605;52.068;20.806;2022-12-05T10:46:54;2.30;99.90
35491;DHT22;21605;52.068;20.806;2022-12-05T10:49:21;2.30;99.90
35491;DHT22;21605;52.068;20.806;2022-12-05T10:51:57;2.30;99.90
35491;DHT22;21605;52.068;20.806;2022-12-05T10:54:27;2.30;99.90
35491;DHT22;21605;52.068;20.806;2022-12-05T10:56:55;2.40;99.90
35491;DHT22;21605;52.068;20.806;2022-12-05T10:59:41;2.40;99.90
35491;DHT22;21605;52.068;20.806;2022-12-05T11:02:27;2.30;99.90
35491;DHT22;21605;52.068;20.806;2022-12-05T11:04:54;2.30;99.90
35491;DHT22;21605;52.068;20.806;2022-12-05T11:07:48;2.30;99.90
35491;DHT22;21605;52.068;20.806;2022-12-05T11:10:33;2.30;99.90
35491;DHT22;21605;52.068;20.806;2022-12-05T11:13:00;2.40;99.90
35491;DHT22;21605;52.068;20.806;2022-12-05T11:15:29;2.30;99.90
35491;DHT22;21605;52.068;20.806;2022-12-05T11:21:19;1.80;99.90
35491;DHT22;21605;52.068;20.806;2022-12-05T11:23:46;2.40;99.90
35491;DHT22;21605;52.068;20.806;2022-12-05T11:26:35;2.50;99.90
35491;DHT22;21605;52.068;20.806;2022-12-05T11:29:03;2.40;99.90
35491;DHT22;21605;52.068;20.806;2022-12-05T11:31:30;2.40;99.90
35491;DHT22;21605;52.068;20.806;2022-12-05T11:34:20;2.50;99.90
35491;DHT22;21605;52.068;20.806;2022-12-05T11:36:57;2.40;99.90
35491;DHT22;21605;52.068;20.806;2022-12-05T11:39:24;2.40;99.90
35491;DHT22;21605;52.068;20.806;2022-12-05T12:07:24;2.60;99.90
35491;DHT22;21605;52.068;20.806;2022-12-05T12:35:22;2.60;99.90
35491;DHT22;21605;52.068;20.806;2022-12-05T12:40:49;2.60;99.90
35491;DHT22;21605;52.068;20.806;2022-12-05T12:43:37;2.60;99.90
35491;DHT22;21605;52.068;20.806;2022-12-05T12:51:30;2.70;99.90
35491;DHT22;21605;52.068;20.806;2022-12-05T13:02:35;2.60;99.90
35491;DHT22;21605;52.068;20.806;2022-12-05T13:08:28;2.60;99.90
35491;DHT22;21605;52.068;20.806;2022-12-05T13:11:05;2.60;99.90
35491;DHT22;21605;52.068;20.806;2022-12-05T13:13:37;2.60;99.90
35491;DHT22;21605;52.068;20.806;2022-12-05T13:16:06;2.60;99.90
35491;DHT22;21605;52.068;20.806;2022-12-05T13:18:33;2.50;99.90
35491;DHT22;21605;52.068;20.806;2022-12-05T13:21:07;2.70;99.90
35491;DHT22;21605;52.068;20.806;2022-12-05T13:23:39;2.70;99.90
35491;DHT22;21605;52.068;20.806;2022-12-05T13:26:09;2.70;99.90
35491;DHT22;21605;52.068;20.806;2022-12-05T13:28:52;2.60;99.90
35491;DHT22;21605;52.068;20.806;2022-12-05T13:31:42;2.60;99.90
35491;DHT22;21605;52.068;20.806;2022-12-05T13:37:26;2.60;99.90
35491;DHT22;21605;52.068;20.806;2022-12-05T13:40:31;2.60;99.90
35491;DHT22;21605;52.068;20.806;2022-12-05T13:43:27;2.60;99.90
35491;DHT22;21605;52.068;20.806;2022-12-05T13:46:10;2.60;99.90
35491;DHT22;21605;52.068;20.806;2022-12-05T13:48:43;2.60;99.90
35491;DHT22;21605;52.068;20.806;2022-12-05T13:53:42;2.60;99.90
35491;DHT22;21605;52.068;20.806;2022-12-05T13:58:52;2.70;99.90
35491;DHT22;21605;52.068;20.806;2022-12-05T14:09:28;2.60;99.90
35491;DHT22;21605;52.068;20.806;2022-12-05T14:17:23;2.70;99.90
35491;DHT22;21605;52.068;20.806;2022-12-05T14:34:23;2.50;99.90
35491;DHT22;21605;52.068;20.806;2022-12-05T14:39:49;2.60;99.90
35491;DHT22;21605;52.068;20.806;2022-12-05T14:50:54;2.60;99.90
35491;DHT22;21605;52.068;20.806;2022-12-05T15:01:38;2.50;99.90
35491;DHT22;21605;52.068;20.806;2022-12-05T15:11:53;2.60;99.90
35491;DHT22;21605;52.068;20.806;2022-12-05T15:14:22;2.50;99.90
35491;DHT22;21605;52.068;20.806;2022-12-05T15:16:51;2.60;99.90
35491;DHT22;21605;52.068;20.806;2022-12-05T15:19:35;2.60;99.90
35491;DHT22;21605;52.068;20.806;2022-12-05T15:22:06;2.60;99.90
35491;DHT22;21605;52.068;20.806;2022-12-05T15:24:37;3.00;99.90
35491;DHT22;21605;52.068;20.806;2022-12-05T15:27:09;2.60;99.90
35491;DHT22;21605;52.068;20.806;2022-12-05T15:29:37;2.50;99.90
35491;DHT22;21605;52.068;20.806;2022-12-05T15:34:52;2.60;99.90
35491;DHT22;21605;52.068;20.806;2022-12-05T15:37:32;2.60;99.90
35491;DHT22;21605;52.068;20.806;2022-12-05T15:40:13;2.60;99.90
35491;DHT22;21605;52.068;20.806;2022-12-05T15:42:44;2.60;99.90
35491;DHT22;21605;52.068;20.806;2022-12-05T15:45:14;2.60;99.90
35491;DHT22;21605;52.068;20.806;2022-12-05T15:52:47;2.70;99.90
35491;DHT22;21605;52.068;20.806;2022-12-05T15:55:30;2.70;99.90
35491;DHT22;21605;52.068;20.806;2022-12-05T16:01:00;2.70;99.90
35491;DHT22;21605;52.068;20.806;2022-12-05T16:03:46;2.70;99.90
35491;DHT22;21605;52.068;20.806;2022-12-05T16:06:32;2.70;99.90
35491;DHT22;21605;52.068;20.806;2022-12-05T16:08:59;2.70;99.90
35491;DHT22;21605;52.068;20.806;2022-12-05T16:11:26;2.70;99.90
35491;DHT22;21605;52.068;20.806;2022-12-05T16:13:58;2.70;99.90
35491;DHT22;21605;52.068;20.806;2022-12-05T16:16:28;2.70;99.90
35491;DHT22;21605;52.068;20.806;2022-12-05T16:18:57;2.70;99.90
35491;DHT22;21605;52.068;20.806;2022-12-05T16:21:34;2.70;99.90
35491;DHT22;21605;52.068;20.806;2022-12-05T16:24:31;2.70;99.90
35491;DHT22;21605;52.068;20.806;2022-12-05T16:29:42;2.70;99.90
35491;DHT22;21605;52.068;20.806;2022-12-05T16:32:23;2.80;99.90
35491;DHT22;21605;52.068;20.806;2022-12-05T16:34:49;2.70;99.90
35491;DHT22;21605;52.068;20.806;2022-12-05T16:37:24;2.70;99.90
35491;DHT22;21605;52.068;20.806;2022-12-05T16:39:51;2.80;99.90
35491;DHT22;21605;52.068;20.806;2022-12-05T16:42:27;2.80;99.90
35491;DHT22;21605;52.068;20.806;2022-12-05T16:44:57;2.80;99.90
35491;DHT22;21605;52.068;20.806;2022-12-05T16:50:38;2.80;99.90
35491;DHT22;21605;52.068;20.806;2022-12-05T16:53:18;2.80;99.90
35491;DHT22;21605;52.068;20.806;2022-12-05T16:55:44;1.20;99.90
35491;DHT22;21605;52.068;20.806;2022-12-05T16:58:22;2.80;99.90
35491;DHT22;21605;52.068;20.806;2022-12-05T17:00:48;2.80;99.90
35491;DHT22;21605;52.068;20.806;2022-12-05T17:03:14;2.80;99.90
35491;DHT22;21605;52.068;20.806;2022-12-05T17:05:40;2.80;99.90
35491;DHT22;21605;52.068;20.806;2022-12-05T17:08:12;2.80;99.90
35491;DHT22;21605;52.068;20.806;2022-12-05T17:10:37;2.80;99.90
35491;DHT22;21605;52.068;20.806;2022-12-05T17:13:14;2.80;99.90
35491;DHT22;21605;52.068;20.806;2022-12-05T17:15:41;2.80;99.90
35491;DHT22;21605;52.068;20.806;2022-12-05T17:18:15;2.80;99.90
35491;DHT22;21605;52.068;20.806;2022-12-05T17:20:43;2.90;99.90
35491;DHT22;21605;52.068;20.806;2022-12-05T17:23:14;2.80;99.90
35491;DHT22;21605;52.068;20.806;2022-12-05T17:25:50;2.90;99.90
35491;DHT22;21605;52.068;20.806;2022-12-05T17:28:17;2.90;99.90
35491;DHT22;21605;52.068;20.806;2022-12-05T17:30:42;2.90;99.90
35491;DHT22;21605;52.068;20.806;2022-12-05T17:33:15;2.90;99.90
35491;DHT22;21605;52.068;20.806;2022-12-05T17:35:41;2.90;99.90
35491;DHT22;21605;52.068;20.806;2022-12-05T17:38:13;2.90;99.90
35491;DHT22;21605;52.068;20.806;2022-12-05T17:40:39;2.90;99.90
35491;DHT22;21605;52.068;20.806;2022-12-05T17:43:14;2.90;99.90
35491;DHT22;21605;52.068;20.806;2022-12-05T17:45:41;2.90;99.90
35491;DHT22;21605;52.068;20.806;2022-12-05T17:48:12;2.90;99.90
35491;DHT22;21605;52.068;20.806;2022-12-05T17:50:42;2.90;99.90
35491;DHT22;21605;52.068;20.806;2022-12-05T17:53:14;2.90;99.90
35491;DHT22;21605;52.068;20.806;2022-12-05T17:55:40;2.90;99.90
35491;DHT22;21605;52.068;20.806;2022-12-05T17:58:16;2.90;99.90
35491;DHT22;21605;52.068;20.806;2022-12-05T18:00:43;3.00;99.90
35491;DHT22;21605;52.068;20.806;2022-12-05T18:03:16;3.00;99.90
35491;DHT22;21605;52.068;20.806;2022-12-05T18:05:43;3.00;99.90
35491;DHT22;21605;52.068;20.806;2022-12-05T18:08:14;3.00;99.90
35491;DHT22;21605;52.068;20.806;2022-12-05T18:10:45;3.00;99.90
35491;DHT22;21605;52.068;20.806;2022-12-05T18:13:12;3.00;99.90
35491;DHT22;21605;52.068;20.806;2022-12-05T18:15:38;3.00;99.90
35491;DHT22;21605;52.068;20.806;2022-12-05T18:18:04;3.10;99.90
35491;DHT22;21605;52.068;20.806;2022-12-05T18:20:32;3.00;99.90
35491;DHT22;21605;52.068;20.806;2022-12-05T18:22:58;3.00;99.90
35491;DHT22;21605;52.068;20.806;2022-12-05T18:25:24;3.00;99.90
35491;DHT22;21605;52.068;20.806;2022-12-05T18:27:49;3.10;99.90
35491;DHT22;21605;52.068;20.806;2022-12-05T18:30:15;3.00;99.90
35491;DHT22;21605;52.068;20.806;2022-12-05T18:32:41;3.00;99.90
35491;DHT22;21605;52.068;20.806;2022-12-05T18:35:18;3.00;99.90
35491;DHT22;21605;52.068;20.806;2022-12-05T18:38:03;3.10;99.90
35491;DHT22;21605;52.068;20.806;2022-12-05T18:40:29;3.10;99.90
35491;DHT22;21605;52.068;20.806;2022-12-05T18:42:54;3.10;99.90
35491;DHT22;21605;52.068;20.806;2022-12-05T18:45:20;3.10;99.90
35491;DHT22;21605;52.068;20.806;2022-12-05T18:47:45;3.10;99.90
35491;DHT22;21605;52.068;20.806;2022-12-05T18:50:16;3.20;99.90
35491;DHT22;21605;52.068;20.806;2022-12-05T18:52:42;3.10;99.90
35491;DHT22;21605;52.068;20.806;2022-12-05T18:55:16;3.20;99.90
35491;DHT22;21605;52.068;20.806;2022-12-05T18:57:42;3.20;99.90
35491;DHT22;21605;52.068;20.806;2022-12-05T19:00:17;3.20;99.90
35491;DHT22;21605;52.068;20.806;2022-12-05T19:02:43;3.20;99.90
35491;DHT22;21605;52.068;20.806;2022-12-05T19:05:16;3.20;99.90
35491;DHT22;21605;52.068;20.806;2022-12-05T19:07:42;3.30;99.90
35491;DHT22;21605;52.068;20.806;2022-12-05T19:10:17;3.20;99.90
35491;DHT22;21605;52.068;20.806;2022-12-05T19:12:42;3.20;99.90
35491;DHT22;21605;52.068;20.806;2022-12-05T19:15:17;3.20;99.90
35491;DHT22;21605;52.068;20.806;2022-12-05T19:17:43;3.20;99.90
35491;DHT22;21605;52.068;20.806;2022-12-05T19:20:22;3.20;99.90
35491;DHT22;21605;52.068;20.806;2022-12-05T19:22:48;3.10;99.90
35491;DHT22;21605;52.068;20.806;2022-12-05T19:25:18;3.10;99.90
35491;DHT22;21605;52.068;20.806;2022-12-05T19:27:44;3.10;99.90